Xin Dan Dong — BPBY — position and weather

sailwx.info

Track history (hours):
 
Tides and Currents Weather Stations Pressure Air Temp Water Temp Dewpoint Dewpoint Depression Visibility Wind Speed Wind Dir Waves Ship Positions

Xin Dan Dong

Last reported at 2015-Mar-30 06:23 UTC. Time now 2015-Mar-30 07:02 UTC.
Position N 22°27' E 113°53'.

Length 263 m; draft 10.4 m.

Type: Ship (hazmat cat A). MMSI: 413153000.

Date/timePositionNaut miles runAvg speedWind from/ knotsBaromVisibWave heightAir tempDewpointWater temp
2015-Mar-30 06:23N 22°27' E 113°53'0 0.0
2015-Mar-30 05:33N 22°27' E 113°53'5 5.2
2015-Mar-30 04:33N 22°22' E 113°55'10 9.3
2015-Mar-30 03:29N 22°18' E 114°05'0 0.1
2015-Mar-30 02:32N 22°18' E 114°05'0 0.1
2015-Mar-30 01:29N 22°18' E 114°05'0 0.1
2015-Mar-30 00:32N 22°19' E 114°05'0 0.1
2015-Mar-29 23:32N 22°19' E 114°05'0 0.1
2015-Mar-29 22:32N 22°19' E 114°05'0 0.0
2015-Mar-29 21:32N 22°19' E 114°05'0 0.0
2015-Mar-29 20:29N 22°19' E 114°05'2 2.7
2015-Mar-29 19:33N 22°20' E 114°07'0 0.3
2015-Mar-29 18:31N 22°20' E 114°08'0 0.0
2015-Mar-29 17:31N 22°20' E 114°08'0 0.0
2015-Mar-29 16:31N 22°20' E 114°08'0 0.0
2015-Mar-29 15:31N 22°20' E 114°08'0 0.0
2015-Mar-29 14:31N 22°20' E 114°08'0 0.0
2015-Mar-29 13:34N 22°20' E 114°08'0 0.0
2015-Mar-29 12:31N 22°20' E 114°08'0 0.0
2015-Mar-29 11:19N 22°20' E 114°08'0 0.0
2015-Mar-29 10:31N 22°20' E 114°08'0 0.0
2015-Mar-29 09:31N 22°20' E 114°08'0 0.0
2015-Mar-29 08:31N 22°20' E 114°08'0 0.0
2015-Mar-29 07:31N 22°20' E 114°08'0 0.0
2015-Mar-29 06:31N 22°20' E 114°08'0 0.0
2015-Mar-29 05:28N 22°20' E 114°08'0 0.0
2015-Mar-29 04:31N 22°20' E 114°08'0 0.0
2015-Mar-29 03:28N 22°20' E 114°08'0 0.0
2015-Mar-29 02:28N 22°20' E 114°08'0 0.0
2015-Mar-29 01:31N 22°20' E 114°08'2 1.7
2015-Mar-29 00:33N 22°19' E 114°06'10 8.8
2015-Mar-28 23:23N 22°10' E 114°13'4 4.7
2015-Mar-28 22:26N 22°09' E 114°17'6 6.7
2015-Mar-28 21:33N 22°09' E 114°23'7 7.0
2015-Mar-28 20:33N 22°09' E 114°31'29413.4
2015-Mar-27 22:33N 22°30' E 119°48'1211.9
2015-Mar-27 21:33N 22°31' E 120°01'1212.4
2015-Mar-27 20:33N 22°33' E 120°14'4 4.2
2015-Mar-27 19:33N 22°34' E 120°19'0 0.0
2015-Mar-27 18:32N 22°34' E 120°19'0 0.0
2015-Mar-27 17:08N 22°34' E 120°19'0 0.0
2015-Mar-27 16:20N 22°34' E 120°19'0 0.0
2015-Mar-27 15:32N 22°34' E 120°19'0 0.0
2015-Mar-27 14:27N 22°34' E 120°19'0 0.0
2015-Mar-27 13:33N 22°34' E 120°19'3 2.8
2015-Mar-27 12:33N 22°33' E 120°16'3 3.3
2015-Mar-27 11:33N 22°31' E 120°13'6 6.4
2015-Mar-27 10:33N 22°24' E 120°12'1313.3
2015-Mar-27 09:33N 22°11' E 120°10'22 4.2
2015-Mar-27 04:23N 21°51' E 120°02'2 2.5
2015-Mar-27 03:33N 21°52' E 120°04'2 2.1
2015-Mar-27 02:33N 21°54' E 120°05'2 1.9
2015-Mar-27 01:28N 21°55' E 120°07'3 1.5
2015-Mar-26 23:31N 21°56' E 120°10'  
Track history (hours):
 
Tides and Currents Weather Stations Pressure Air Temp Water Temp Dewpoint Dewpoint Depression Visibility Wind Speed Wind Dir Waves Ship Positions

Xin Dan Dong

Last reported at 2015-Mar-30 06:23 UTC. Time now 2015-Mar-30 07:02 UTC.
Position N 22°27' E 113°53'.

Length 263 m; draft 10.4 m.

Type: Ship (hazmat cat A). MMSI: 413153000.

Date/timePositionNaut miles runAvg speedWind from/ knotsBaromVisibWave heightAir tempDewpointWater temp
2015-Mar-30 06:23N 22°27' E 113°53'0 0.0
2015-Mar-30 05:33N 22°27' E 113°53'5 5.2
2015-Mar-30 04:33N 22°22' E 113°55'10 9.3
2015-Mar-30 03:29N 22°18' E 114°05'0 0.1
2015-Mar-30 02:32N 22°18' E 114°05'0 0.1
2015-Mar-30 01:29N 22°18' E 114°05'0 0.1
2015-Mar-30 00:32N 22°19' E 114°05'0 0.1
2015-Mar-29 23:32N 22°19' E 114°05'0 0.1
2015-Mar-29 22:32N 22°19' E 114°05'0 0.0
2015-Mar-29 21:32N 22°19' E 114°05'0 0.0
2015-Mar-29 20:29N 22°19' E 114°05'2 2.7
2015-Mar-29 19:33N 22°20' E 114°07'0 0.3
2015-Mar-29 18:31N 22°20' E 114°08'0 0.0
2015-Mar-29 17:31N 22°20' E 114°08'0 0.0
2015-Mar-29 16:31N 22°20' E 114°08'0 0.0
2015-Mar-29 15:31N 22°20' E 114°08'0 0.0
2015-Mar-29 14:31N 22°20' E 114°08'0 0.0
2015-Mar-29 13:34N 22°20' E 114°08'0 0.0
2015-Mar-29 12:31N 22°20' E 114°08'0 0.0
2015-Mar-29 11:19N 22°20' E 114°08'0 0.0
2015-Mar-29 10:31N 22°20' E 114°08'0 0.0
2015-Mar-29 09:31N 22°20' E 114°08'0 0.0
2015-Mar-29 08:31N 22°20' E 114°08'0 0.0
2015-Mar-29 07:31N 22°20' E 114°08'0 0.0
2015-Mar-29 06:31N 22°20' E 114°08'0 0.0
2015-Mar-29 05:28N 22°20' E 114°08'0 0.0
2015-Mar-29 04:31N 22°20' E 114°08'0 0.0
2015-Mar-29 03:28N 22°20' E 114°08'0 0.0
2015-Mar-29 02:28N 22°20' E 114°08'0 0.0
2015-Mar-29 01:31N 22°20' E 114°08'2 1.7
2015-Mar-29 00:33N 22°19' E 114°06'10 8.8
2015-Mar-28 23:23N 22°10' E 114°13'4 4.7
2015-Mar-28 22:26N 22°09' E 114°17'6 6.7
2015-Mar-28 21:33N 22°09' E 114°23'7 7.0
2015-Mar-28 20:33N 22°09' E 114°31'29413.4
2015-Mar-27 22:33N 22°30' E 119°48'1211.9
2015-Mar-27 21:33N 22°31' E 120°01'1212.4
2015-Mar-27 20:33N 22°33' E 120°14'4 4.2
2015-Mar-27 19:33N 22°34' E 120°19'0 0.0
2015-Mar-27 18:32N 22°34' E 120°19'0 0.0
2015-Mar-27 17:08N 22°34' E 120°19'0 0.0
2015-Mar-27 16:20N 22°34' E 120°19'0 0.0
2015-Mar-27 15:32N 22°34' E 120°19'0 0.0
2015-Mar-27 14:27N 22°34' E 120°19'0 0.0
2015-Mar-27 13:33N 22°34' E 120°19'3 2.8
2015-Mar-27 12:33N 22°33' E 120°16'3 3.3
2015-Mar-27 11:33N 22°31' E 120°13'6 6.4
2015-Mar-27 10:33N 22°24' E 120°12'1313.3
2015-Mar-27 09:33N 22°11' E 120°10'22 4.2
2015-Mar-27 04:23N 21°51' E 120°02'2 2.5
2015-Mar-27 03:33N 21°52' E 120°04'2 2.1
2015-Mar-27 02:33N 21°54' E 120°05'2 1.9
2015-Mar-27 01:28N 21°55' E 120°07'3 1.5
2015-Mar-26 23:31N 21°56' E 120°10'  

Dump ship's entire track history